createdAt,value
2018-06-09T00:01:14.698Z,172.50
2018-06-09T00:03:49.052Z,178.57
2018-06-09T00:06:23.757Z,183.63
2018-06-09T00:08:58.225Z,174.63
2018-06-09T00:11:32.710Z,193.07
2018-06-09T00:14:07.517Z,198.60
2018-06-09T00:16:42.010Z,196.50
2018-06-09T00:19:16.525Z,201.40
2018-06-09T00:21:51.345Z,216.07
2018-06-09T00:24:26.026Z,213.40
2018-06-09T00:27:00.662Z,210.33
2018-06-09T00:29:35.189Z,198.20
2018-06-09T00:32:09.768Z,192.03
2018-06-09T00:34:44.144Z,182.17
2018-06-09T00:37:18.672Z,177.17
2018-06-09T00:39:53.331Z,195.97
2018-06-09T00:42:30.767Z,202.27
2018-06-09T00:45:05.345Z,224.53
2018-06-09T00:47:39.724Z,220.47
2018-06-09T00:50:14.296Z,237.93
2018-06-09T00:52:49.151Z,262.23
2018-06-09T00:55:24.076Z,253.80
2018-06-09T00:57:58.661Z,239.90
2018-06-09T01:00:33.437Z,235.60
2018-06-09T01:03:08.033Z,236.30
2018-06-09T01:05:42.577Z,203.83
2018-06-09T01:08:17.132Z,195.80
2018-06-09T01:10:51.464Z,170.87
2018-06-09T01:13:26.020Z,177.57
2018-06-09T01:16:00.629Z,179.83
2018-06-09T01:18:35.235Z,164.07
2018-06-09T01:21:09.844Z,164.80
2018-06-09T01:23:44.272Z,167.17
2018-06-09T01:26:19.217Z,162.67
2018-06-09T01:28:53.724Z,169.57
2018-06-09T01:31:28.216Z,190.97
2018-06-09T01:34:02.657Z,174.57
2018-06-09T01:36:37.322Z,175.47
2018-06-09T01:39:12.068Z,186.10
2018-06-09T01:41:46.694Z,172.93
2018-06-09T01:44:21.077Z,177.60
2018-06-09T01:46:55.457Z,186.67
2018-06-09T01:49:30.300Z,204.07
2018-06-09T01:52:04.708Z,204.80
2018-06-09T01:54:39.212Z,197.33
2018-06-09T01:57:13.636Z,195.57
2018-06-09T01:59:48.073Z,202.20
2018-06-09T02:02:23.101Z,201.93
2018-06-09T02:04:57.646Z,221.27
2018-06-09T02:07:32.205Z,198.70
2018-06-09T02:10:06.729Z,211.93
2018-06-09T02:12:41.144Z,195.10
2018-06-09T02:15:15.661Z,199.70
2018-06-09T02:17:50.228Z,196.47
2018-06-09T02:20:24.730Z,191.37
2018-06-09T02:22:59.125Z,191.57
2018-06-09T02:25:34.129Z,184.07
2018-06-09T02:28:08.813Z,180.17
2018-06-09T02:30:43.437Z,167.00
2018-06-09T02:33:18.026Z,158.87
2018-06-09T02:35:52.376Z,151.37
2018-06-09T02:38:26.883Z,147.63
2018-06-09T02:41:01.460Z,150.03
2018-06-09T02:43:35.888Z,147.60
2018-06-09T02:46:10.273Z,154.60
2018-06-09T02:48:44.764Z,153.90
2018-06-09T02:51:19.108Z,151.47
2018-06-09T02:53:53.536Z,156.87
2018-06-09T02:56:27.909Z,152.73
2018-06-09T02:59:02.335Z,151.57
2018-06-09T03:01:36.897Z,153.10
2018-06-09T03:04:11.328Z,164.83
2018-06-09T03:06:45.793Z,173.00
2018-06-09T03:09:20.319Z,175.83
2018-06-09T03:11:54.973Z,175.67
2018-06-09T03:14:29.413Z,168.43
2018-06-09T03:17:04.021Z,175.37
2018-06-09T03:19:38.615Z,162.93
2018-06-09T03:22:12.985Z,165.47
2018-06-09T03:24:47.364Z,181.53
2018-06-09T03:27:21.873Z,168.23
2018-06-09T03:29:56.464Z,179.17
2018-06-09T03:32:31.023Z,169.33
2018-06-09T03:35:05.658Z,177.17
2018-06-09T03:37:40.617Z,178.80
2018-06-09T03:40:15.053Z,176.77
2018-06-09T03:42:49.604Z,185.10
2018-06-09T03:45:24.233Z,171.70
2018-06-09T03:47:58.804Z,176.80
2018-06-09T03:50:33.225Z,168.30
2018-06-09T03:53:07.576Z,166.23
2018-06-09T03:55:42.024Z,173.90
2018-06-09T03:58:16.717Z,182.70
2018-06-09T04:00:51.461Z,175.27
2018-06-09T04:03:26.104Z,181.73
2018-06-09T04:06:00.536Z,151.53
2018-06-09T04:08:34.939Z,160.63
2018-06-09T04:11:09.504Z,191.60
2018-06-09T04:13:44.172Z,179.77
2018-06-09T04:16:18.953Z,170.97
2018-06-09T04:18:53.449Z,183.63
2018-06-09T04:21:28.356Z,175.23
2018-06-09T04:24:03.026Z,166.80
2018-06-09T04:26:37.637Z,163.10
2018-06-09T04:29:12.028Z,163.50
2018-06-09T04:31:46.445Z,155.30
2018-06-09T04:34:20.827Z,166.47
2018-06-09T04:36:55.520Z,159.07
2018-06-09T04:39:29.872Z,163.07
2018-06-09T04:42:04.327Z,150.40
2018-06-09T04:44:38.824Z,158.17
2018-06-09T04:47:13.329Z,171.30
2018-06-09T04:49:47.780Z,186.10
2018-06-09T04:52:22.215Z,179.43
2018-06-09T04:54:56.645Z,187.53
2018-06-09T04:57:34.032Z,168.87
2018-06-09T05:00:08.625Z,168.50
2018-06-09T05:02:43.089Z,156.13
2018-06-09T05:05:17.624Z,157.33
2018-06-09T05:07:52.121Z,160.00
2018-06-09T05:10:26.700Z,153.20
2018-06-09T05:13:01.203Z,147.07
2018-06-09T05:15:35.770Z,139.27
2018-06-09T05:18:10.141Z,140.27
2018-06-09T05:20:44.516Z,141.53
2018-06-09T05:23:19.177Z,129.87
2018-06-09T05:25:53.862Z,122.70
2018-06-09T05:28:28.385Z,120.27
2018-06-09T05:31:02.689Z,126.00
2018-06-09T05:33:37.148Z,123.83
2018-06-09T05:36:11.725Z,125.67
2018-06-09T05:38:46.068Z,122.93
2018-06-09T05:41:20.426Z,108.13
2018-06-09T05:43:55.001Z,111.20
2018-06-09T05:46:29.477Z,98.07
2018-06-09T05:49:03.997Z,89.23
2018-06-09T05:51:38.567Z,91.80
2018-06-09T05:54:13.049Z,84.57
2018-06-09T05:56:47.567Z,83.80
2018-06-09T05:59:22.034Z,73.40
2018-06-09T06:01:56.388Z,72.23
2018-06-09T06:04:30.780Z,74.77
2018-06-09T06:07:05.348Z,76.93
2018-06-09T06:09:39.712Z,87.30
2018-06-09T06:12:14.145Z,83.73
2018-06-09T06:14:48.981Z,82.40
2018-06-09T06:17:23.780Z,82.37
2018-06-09T06:19:58.208Z,79.83
2018-06-09T06:22:32.798Z,76.60
2018-06-09T06:25:07.444Z,73.87
2018-06-09T06:27:42.117Z,67.30
2018-06-09T06:30:16.926Z,71.20
2018-06-09T06:32:51.533Z,68.23
2018-06-09T06:35:26.044Z,73.23
2018-06-09T06:38:00.492Z,66.63
2018-06-09T06:40:34.937Z,63.83
2018-06-09T06:43:10.057Z,59.43
2018-06-09T06:45:44.601Z,60.93
2018-06-09T06:48:19.068Z,56.17
2018-06-09T06:50:53.529Z,63.90
2018-06-09T06:53:28.111Z,57.00
2018-06-09T06:56:02.757Z,54.40
2018-06-09T06:58:37.390Z,56.70
2018-06-09T07:01:11.960Z,52.33
2018-06-09T07:03:46.456Z,51.30
2018-06-09T07:06:20.940Z,49.33
2018-06-09T07:08:55.428Z,52.70
2018-06-09T07:11:30.014Z,48.97
2018-06-09T07:14:04.580Z,49.53
2018-06-09T07:16:39.068Z,50.20
2018-06-09T07:19:13.593Z,48.40
2018-06-09T07:21:48.180Z,49.53
2018-06-09T07:24:22.668Z,42.73
2018-06-09T07:26:57.162Z,48.53
2018-06-09T07:29:31.613Z,48.40
2018-06-09T07:32:06.260Z,49.90
2018-06-09T07:34:40.721Z,47.60
2018-06-09T07:37:15.289Z,48.67
2018-06-09T07:39:49.678Z,48.03
2018-06-09T07:42:24.475Z,50.00
2018-06-09T07:44:58.877Z,47.27
2018-06-09T07:47:33.428Z,47.80
2018-06-09T07:50:08.176Z,45.83
2018-06-09T07:52:42.852Z,43.40
2018-06-09T07:55:17.441Z,38.27
2018-06-09T07:57:52.029Z,36.70
2018-06-09T08:00:27.153Z,35.37
2018-06-09T08:03:01.609Z,32.53
2018-06-09T08:05:36.180Z,31.73
2018-06-09T08:08:10.549Z,31.83
2018-06-09T08:10:45.236Z,33.47
2018-06-09T08:13:19.870Z,31.13
2018-06-09T08:15:54.250Z,32.60
2018-06-09T08:18:28.808Z,34.33
2018-06-09T08:21:03.345Z,34.80
2018-06-09T08:23:37.752Z,30.83
2018-06-09T08:26:12.137Z,30.93
2018-06-09T08:28:46.823Z,29.20
2018-06-09T08:31:21.349Z,28.33
2018-06-09T08:33:55.781Z,27.80
2018-06-09T08:36:30.230Z,28.00
2018-06-09T08:39:06.184Z,31.10
2018-06-09T08:41:40.725Z,32.90
2018-06-09T08:44:15.629Z,26.27
2018-06-09T08:46:50.362Z,27.80
2018-06-09T08:49:24.948Z,25.87
2018-06-09T08:51:59.470Z,26.67
2018-06-09T08:54:33.994Z,26.53
2018-06-09T08:57:08.400Z,24.23
2018-06-09T08:59:42.865Z,24.97
2018-06-09T09:02:17.461Z,24.20
2018-06-09T09:04:52.026Z,27.70
2018-06-09T09:07:26.626Z,26.00
2018-06-09T09:10:01.119Z,24.30
2018-06-09T09:12:35.737Z,25.63
2018-06-09T09:15:10.095Z,21.67
2018-06-09T09:17:44.487Z,22.70
2018-06-09T09:20:18.957Z,25.07
2018-06-09T09:22:53.449Z,24.60
2018-06-09T09:25:27.796Z,23.87
2018-06-09T09:28:02.529Z,23.17
2018-06-09T09:30:37.187Z,23.03
2018-06-09T09:33:12.025Z,22.93
2018-06-09T09:35:46.645Z,24.17
2018-06-09T09:38:21.264Z,26.60
2018-06-09T09:40:55.651Z,24.90
2018-06-09T09:43:30.084Z,24.47
2018-06-09T09:46:04.889Z,28.13
2018-06-09T09:48:39.424Z,23.07
2018-06-09T09:51:13.995Z,21.47
2018-06-09T09:53:48.341Z,24.07
2018-06-09T09:56:22.769Z,23.03
2018-06-09T09:58:57.301Z,22.10
2018-06-09T10:01:31.676Z,22.30
2018-06-09T10:04:06.481Z,22.10
2018-06-09T10:06:41.228Z,21.60
2018-06-09T10:09:15.797Z,20.83
2018-06-09T10:11:50.400Z,21.67
2018-06-09T10:14:25.207Z,22.20
2018-06-09T10:16:59.757Z,22.30
2018-06-09T10:19:34.210Z,25.00
2018-06-09T10:22:11.700Z,20.87
2018-06-09T10:24:46.272Z,22.23
2018-06-09T10:27:20.969Z,23.50
2018-06-09T10:29:55.384Z,23.13
2018-06-09T10:32:29.834Z,22.10
2018-06-09T10:35:04.473Z,20.63
2018-06-09T10:37:38.912Z,21.57
2018-06-09T10:40:14.037Z,20.40
2018-06-09T10:42:48.568Z,21.63
2018-06-09T10:45:23.045Z,21.00
2018-06-09T10:47:57.424Z,21.27
2018-06-09T10:50:32.166Z,21.60
2018-06-09T10:53:06.800Z,22.63
2018-06-09T10:55:41.253Z,22.37
2018-06-09T10:58:15.817Z,21.63
2018-06-09T11:00:50.737Z,22.80
2018-06-09T11:03:25.324Z,23.20
2018-06-09T11:05:59.790Z,21.37
2018-06-09T11:08:34.152Z,22.50
2018-06-09T11:11:08.596Z,18.40
2018-06-09T11:13:43.013Z,21.03
2018-06-09T11:16:17.778Z,20.30
2018-06-09T11:18:52.379Z,20.50
2018-06-09T11:21:27.028Z,19.90
2018-06-09T11:24:01.497Z,21.43
2018-06-09T11:26:35.952Z,21.83
2018-06-09T11:29:10.401Z,21.00
2018-06-09T11:31:45.027Z,19.60
2018-06-09T11:34:19.492Z,19.97
2018-06-09T11:36:53.920Z,19.83
2018-06-09T11:39:28.556Z,17.30
2018-06-09T11:42:03.109Z,18.23
2018-06-09T11:44:37.632Z,20.23
2018-06-09T11:50:11.905Z,25.40
2018-06-09T11:52:46.700Z,20.37
2018-06-09T11:55:21.080Z,19.70
2018-06-09T11:57:55.489Z,19.03
2018-06-09T12:00:30.079Z,23.03
2018-06-09T12:03:04.948Z,20.17
2018-06-09T12:05:39.588Z,18.60
2018-06-09T12:08:13.969Z,25.53
2018-06-09T12:10:48.388Z,23.40
2018-06-09T12:13:22.945Z,19.57
2018-06-09T12:15:57.484Z,24.30
2018-06-09T12:18:31.865Z,23.33
2018-06-09T12:21:06.297Z,22.70
2018-06-09T12:23:40.848Z,27.23
2018-06-09T12:26:15.437Z,21.90
2018-06-09T12:28:49.833Z,21.10
2018-06-09T12:31:24.213Z,24.57
2018-06-09T12:33:58.930Z,21.07
2018-06-09T12:36:33.506Z,19.47
2018-06-09T12:39:08.216Z,24.87
2018-06-09T12:41:42.706Z,20.23
2018-06-09T12:44:17.169Z,21.57
2018-06-09T12:46:51.555Z,23.73
2018-06-09T12:49:26.123Z,22.33
2018-06-09T12:52:01.002Z,21.03
2018-06-09T12:54:35.385Z,21.47
2018-06-09T12:57:09.816Z,23.23
2018-06-09T12:59:44.472Z,24.33
2018-06-09T13:02:18.941Z,23.73
2018-06-09T13:04:53.556Z,21.83
2018-06-09T13:07:28.168Z,24.00
2018-06-09T13:10:02.724Z,21.47
2018-06-09T13:12:37.398Z,21.13
2018-06-09T13:15:11.983Z,21.60
2018-06-09T13:17:46.517Z,20.47
2018-06-09T13:20:20.868Z,19.53
2018-06-09T13:22:55.671Z,20.57
2018-06-09T13:25:30.233Z,19.40
2018-06-09T13:28:04.961Z,21.47
2018-06-09T13:30:39.460Z,20.37
2018-06-09T13:33:13.881Z,23.00
2018-06-09T13:35:48.583Z,20.60
2018-06-09T13:38:23.140Z,21.40
2018-06-09T13:40:57.653Z,22.43
2018-06-09T13:43:32.174Z,24.40
2018-06-09T13:46:06.708Z,21.33
2018-06-09T13:48:41.175Z,27.07
2018-06-09T13:51:15.497Z,25.63
2018-06-09T13:53:49.960Z,22.40
2018-06-09T13:59:40.037Z,17.77
2018-06-09T14:02:14.540Z,23.30
2018-06-09T14:04:49.240Z,24.33
2018-06-09T14:07:23.733Z,18.50
2018-06-09T14:09:58.109Z,26.40
2018-06-09T14:12:33.097Z,26.50
2018-06-09T14:15:07.525Z,20.50
2018-06-09T14:17:42.126Z,18.73
2018-06-09T14:20:16.757Z,19.97
2018-06-09T14:22:51.685Z,18.70
2018-06-09T14:25:26.225Z,17.77
2018-06-09T14:28:00.737Z,20.77
2018-06-09T14:30:35.269Z,23.70
2018-06-09T14:33:10.284Z,19.43
2018-06-09T14:35:44.753Z,22.53
2018-06-09T14:38:19.183Z,21.90
2018-06-09T14:40:53.677Z,19.67
2018-06-09T14:43:28.309Z,18.40
2018-06-09T14:46:02.800Z,17.73
2018-06-09T14:48:37.452Z,16.40
2018-06-09T14:51:11.864Z,20.00
2018-06-09T14:53:46.424Z,19.87
2018-06-09T14:56:21.049Z,24.03
2018-06-09T14:58:55.673Z,21.40
2018-06-09T15:01:30.022Z,20.67
2018-06-09T15:04:04.671Z,25.23
2018-06-09T15:06:39.225Z,22.03
2018-06-09T15:09:13.866Z,26.67
2018-06-09T15:11:48.456Z,23.80
2018-06-09T15:14:23.105Z,23.23
2018-06-09T15:16:57.512Z,22.27
2018-06-09T15:19:32.142Z,19.70
2018-06-09T15:22:06.517Z,22.33
2018-06-09T15:24:41.449Z,22.50
2018-06-09T15:27:16.193Z,19.87
2018-06-09T15:29:50.793Z,18.97
2018-06-09T15:32:25.418Z,18.33
2018-06-09T15:35:00.058Z,20.07
2018-06-09T15:37:34.506Z,19.43
2018-06-09T15:40:09.148Z,18.93
2018-06-09T15:42:43.712Z,21.43
2018-06-09T15:45:18.153Z,22.03
2018-06-09T15:47:52.893Z,17.93
2018-06-09T15:50:27.457Z,25.80
2018-06-09T15:53:02.041Z,23.27
2018-06-09T15:55:36.617Z,23.43
2018-06-09T15:58:11.138Z,27.60
2018-06-09T16:00:46.083Z,24.63
2018-06-09T16:03:20.690Z,23.23
2018-06-09T16:05:55.198Z,24.40
2018-06-09T16:08:29.724Z,24.13
2018-06-09T16:11:04.181Z,24.87
2018-06-09T16:13:38.660Z,22.90
2018-06-09T16:16:13.181Z,26.50
2018-06-09T16:18:47.685Z,21.50
2018-06-09T16:21:22.106Z,25.97
2018-06-09T16:23:56.801Z,25.53
2018-06-09T16:26:31.409Z,28.27
2018-06-09T16:29:06.085Z,28.27
2018-06-09T16:31:40.693Z,20.70
2018-06-09T16:34:17.264Z,26.83
2018-06-09T16:36:53.426Z,31.40
2018-06-09T16:39:28.497Z,31.33
2018-06-09T16:42:03.020Z,28.50
2018-06-09T16:44:37.501Z,29.07
2018-06-09T16:50:11.832Z,34.50
2018-06-09T16:52:46.476Z,29.50
2018-06-09T16:55:20.857Z,22.53
2018-06-09T16:57:55.354Z,30.77
2018-06-09T17:00:29.984Z,30.70
2018-06-09T17:03:04.805Z,40.27
2018-06-09T17:05:39.356Z,37.63
2018-06-09T17:08:13.817Z,34.53
2018-06-09T17:10:48.383Z,32.07
2018-06-09T17:13:22.817Z,36.30
2018-06-09T17:15:57.269Z,30.30
2018-06-09T17:18:31.988Z,32.63
2018-06-09T17:21:06.413Z,28.83
2018-06-09T17:23:40.864Z,31.67
2018-06-09T17:26:15.724Z,28.03
2018-06-09T17:28:50.116Z,28.80
2018-06-09T17:31:24.559Z,109.37
2018-06-09T17:33:58.991Z,30.07
2018-06-09T17:36:33.521Z,27.40
2018-06-09T17:39:08.356Z,32.00
2018-06-09T17:41:43.040Z,30.97
2018-06-09T17:44:17.462Z,31.33
2018-06-09T17:46:52.001Z,31.13
2018-06-09T17:49:26.620Z,34.50
2018-06-09T17:52:01.229Z,30.37
2018-06-09T17:54:35.724Z,35.77
2018-06-09T17:57:10.332Z,32.03
2018-06-09T17:59:44.836Z,32.03
2018-06-09T18:02:19.609Z,30.43
2018-06-09T18:04:54.312Z,29.23
2018-06-09T18:07:28.928Z,35.00
2018-06-09T18:10:03.476Z,30.67
2018-06-09T18:12:38.013Z,32.47
2018-06-09T18:15:12.420Z,31.23
2018-06-09T18:17:46.820Z,29.27
2018-06-09T18:20:21.723Z,30.40
2018-06-09T18:22:56.211Z,31.87
2018-06-09T18:25:30.541Z,30.80
2018-06-09T18:28:05.121Z,30.13
2018-06-09T18:30:39.657Z,29.53
2018-06-09T18:33:14.181Z,31.93
2018-06-09T18:35:48.912Z,27.30
2018-06-09T18:38:23.528Z,29.17
2018-06-09T18:40:57.842Z,29.63
2018-06-09T18:43:32.476Z,33.93
2018-06-09T18:46:06.965Z,30.10
2018-06-09T18:48:41.485Z,33.57
2018-06-09T18:51:16.080Z,30.80
2018-06-09T18:53:50.676Z,31.33
2018-06-09T18:56:25.476Z,29.93
2018-06-09T18:59:00.249Z,30.20
2018-06-09T19:01:34.830Z,33.87
2018-06-09T19:04:09.581Z,30.93
2018-06-09T19:06:44.265Z,32.00
2018-06-09T19:09:18.912Z,31.10
2018-06-09T19:11:53.341Z,32.80
2018-06-09T19:14:27.845Z,30.43
2018-06-09T19:17:02.603Z,31.53
2018-06-09T19:19:37.057Z,31.17
2018-06-09T19:22:11.490Z,31.30
2018-06-09T19:24:46.069Z,30.73
2018-06-09T19:27:20.541Z,36.03
2018-06-09T19:29:55.173Z,31.37
2018-06-09T19:32:29.604Z,29.37
2018-06-09T19:35:04.085Z,30.97
2018-06-09T19:37:38.481Z,31.07
2018-06-09T19:40:13.086Z,30.97
2018-06-09T19:42:47.688Z,27.93
2018-06-09T19:45:22.185Z,32.10
2018-06-09T19:47:56.850Z,29.63
2018-06-09T19:50:31.476Z,28.87
2018-06-09T19:53:06.169Z,27.20
2018-06-09T19:55:40.784Z,29.13
2018-06-09T19:58:15.437Z,27.60
2018-06-09T20:00:49.809Z,40.27
2018-06-09T20:03:24.448Z,29.53
2018-06-09T20:05:59.017Z,29.47
2018-06-09T20:08:33.596Z,30.13
2018-06-09T20:11:07.951Z,29.70
2018-06-09T20:13:42.422Z,30.20
2018-06-09T20:16:17.217Z,30.40
2018-06-09T20:18:51.736Z,34.47
2018-06-09T20:21:26.271Z,34.33
2018-06-09T20:24:00.957Z,31.87
2018-06-09T20:26:35.545Z,35.37
2018-06-09T20:29:10.446Z,32.93
2018-06-09T20:31:45.000Z,32.50
2018-06-09T20:34:19.425Z,37.43
2018-06-09T20:36:53.965Z,32.83
2018-06-09T20:39:28.822Z,37.17
2018-06-09T20:42:03.421Z,37.67
2018-06-09T20:44:38.110Z,35.53
2018-06-09T20:47:12.657Z,35.50
2018-06-09T20:49:47.551Z,36.80
2018-06-09T20:52:22.091Z,32.60
2018-06-09T20:54:56.659Z,32.93
2018-06-09T20:57:31.189Z,37.87
2018-06-09T21:00:05.762Z,40.13
2018-06-09T21:02:40.372Z,38.20
2018-06-09T21:05:14.925Z,37.50
2018-06-09T21:07:49.388Z,38.90
2018-06-09T21:10:23.820Z,41.77
2018-06-09T21:12:58.320Z,41.30
2018-06-09T21:15:32.840Z,39.50
2018-06-09T21:18:07.390Z,42.27
2018-06-09T21:20:41.887Z,43.50
2018-06-09T21:23:16.260Z,38.70
2018-06-09T21:25:50.857Z,39.60
2018-06-09T21:28:25.737Z,38.63
2018-06-09T21:31:05.838Z,39.97
2018-06-09T21:33:57.112Z,37.77
2018-06-09T21:36:35.847Z,38.63
2018-06-09T21:39:15.784Z,32.73
2018-06-09T21:41:55.510Z,44.77
2018-06-09T21:44:35.200Z,40.03
2018-06-09T21:47:10.205Z,38.73
2018-06-09T21:49:45.066Z,35.47
2018-06-09T21:52:19.536Z,38.80
2018-06-09T21:54:54.157Z,39.57
2018-06-09T21:57:28.677Z,34.93
2018-06-09T22:00:03.625Z,37.70
2018-06-09T22:02:38.116Z,37.83
2018-06-09T22:05:12.750Z,39.63
2018-06-09T22:07:47.369Z,39.53
2018-06-09T22:10:22.210Z,40.80
2018-06-09T22:12:57.153Z,39.70
2018-06-09T22:15:31.688Z,39.23
2018-06-09T22:18:06.240Z,39.93
2018-06-09T22:20:41.496Z,39.13
2018-06-09T22:23:16.135Z,43.57
2018-06-09T22:25:56.070Z,42.20
2018-06-09T22:28:30.656Z,42.23
2018-06-09T22:31:05.269Z,42.87
2018-06-09T22:33:39.767Z,48.27
2018-06-09T22:36:14.548Z,44.33
2018-06-09T22:38:48.839Z,44.13
2018-06-09T22:41:23.242Z,42.67
2018-06-09T22:43:58.045Z,40.03
2018-06-09T22:46:32.529Z,47.20
2018-06-09T22:49:06.960Z,48.83
2018-06-09T22:51:41.285Z,41.80
2018-06-09T22:54:16.085Z,40.70
2018-06-09T22:56:50.432Z,38.30
2018-06-09T22:59:25.020Z,39.73
2018-06-09T23:01:59.465Z,32.73
2018-06-09T23:04:33.958Z,30.90
2018-06-09T23:07:08.541Z,32.13
2018-06-09T23:09:43.370Z,31.27
2018-06-09T23:12:17.816Z,35.63
2018-06-09T23:14:52.604Z,35.23
2018-06-09T23:17:27.182Z,29.67
2018-06-09T23:20:02.137Z,34.93
2018-06-09T23:22:36.604Z,35.50
2018-06-09T23:25:11.286Z,37.17
2018-06-09T23:27:46.116Z,45.13
2018-06-09T23:30:20.744Z,36.07
2018-06-09T23:32:55.256Z,38.37
2018-06-09T23:35:29.836Z,38.10
2018-06-09T23:38:04.244Z,40.77
2018-06-09T23:40:38.736Z,36.60
2018-06-09T23:43:13.079Z,39.53
2018-06-09T23:45:47.500Z,41.77
2018-06-09T23:48:22.137Z,43.27
2018-06-09T23:50:56.513Z,48.70
2018-06-09T23:53:30.876Z,55.20
2018-06-09T23:56:05.616Z,65.80
2018-06-09T23:58:40.200Z,76.40
